Time;durP1;ratioP1;P1;durP2;ratioP2;P2;SDS_P1;SDS_P2;PMS_P1;PMS_P2;Temp;Humidity;BMP_temperature;BMP_pressure;BME280_temperature;BME280_humidity;BME280_pressure;Samples;Min_cycle;Max_cycle;Signal;HPM_P1;HPM_P2
2023/10/10 00:02:28;;;;;;;24.27;16.80;;;14.30;99.90;;;;;;4974513;28;20232;-70
2023/10/10 00:04:54;;;;;;;24.87;18.40;;;14.30;99.90;;;;;;4974881;28;20165;-70
2023/10/10 00:07:26;;;;;;;29.97;19.13;;;14.30;99.90;;;;;;4974782;28;20597;-70
2023/10/10 00:09:51;;;;;;;30.53;20.27;;;14.20;99.90;;;;;;4974773;28;20256;-70
2023/10/10 00:12:19;;;;;;;32.20;20.00;;;14.20;99.90;;;;;;4974484;28;20169;-70
2023/10/10 00:14:50;;;;;;;26.53;19.73;;;14.20;99.90;;;;;;4974383;28;20733;-70
2023/10/10 00:17:20;;;;;;;27.07;19.07;;;14.20;99.90;;;;;;4974748;28;20200;-70
2023/10/10 00:19:52;;;;;;;27.00;18.53;;;14.10;99.90;;;;;;4974968;28;20193;-70
2023/10/10 00:22:26;;;;;;;30.13;19.80;;;14.10;99.90;;;;;;4974601;28;20236;-70
2023/10/10 00:24:52;;;;;;;26.80;19.50;;;14.10;99.90;;;;;;4974473;28;20181;-70
2023/10/10 00:27:21;;;;;;;28.57;19.20;;;14.10;99.90;;;;;;4974434;28;20723;-71
2023/10/10 00:29:48;;;;;;;27.27;19.23;;;14.10;99.90;;;;;;4974077;28;20189;-71
2023/10/10 00:32:18;;;;;;;26.93;18.87;;;14.10;99.90;;;;;;4974454;28;20665;-70
2023/10/10 00:34:47;;;;;;;33.37;20.57;;;14.00;99.90;;;;;;4974292;28;20584;-70
2023/10/10 00:37:21;;;;;;;31.70;19.90;;;14.00;99.90;;;;;;4973869;28;20616;-69
2023/10/10 00:39:54;;;;;;;31.47;20.77;;;13.90;99.90;;;;;;4974377;28;20200;-70
2023/10/10 00:42:21;;;;;;;31.40;19.93;;;13.90;99.90;;;;;;4973650;28;20216;-70
2023/10/10 00:44:48;;;;;;;31.40;19.83;;;13.90;99.90;;;;;;4974041;28;20162;-70
2023/10/10 00:47:26;;;;;;;31.43;19.97;;;13.90;99.90;;;;;;4974193;28;20280;-70
2023/10/10 00:49:52;;;;;;;36.77;21.23;;;13.90;99.90;;;;;;4974279;28;20194;-71
2023/10/10 00:52:19;;;;;;;30.10;21.17;;;13.80;99.90;;;;;;4974103;28;20181;-70
2023/10/10 00:54:46;;;;;;;32.33;19.27;;;13.80;99.90;;;;;;4973916;28;20518;-70
2023/10/10 00:57:14;;;;;;;26.80;19.00;;;13.80;99.90;;;;;;4973749;28;20492;-70
2023/10/10 00:59:44;;;;;;;28.33;19.53;;;13.80;99.90;;;;;;4973886;28;20703;-70
2023/10/10 01:02:16;;;;;;;30.20;20.13;;;13.90;99.90;;;;;;4973781;28;20225;-70
2023/10/10 01:07:21;;;;;;;31.80;20.50;;;13.80;99.90;;;;;;4973756;28;20169;-70
2023/10/10 01:12:22;;;;;;;34.23;21.60;;;13.80;99.90;;;;;;4973757;28;20281;-71
2023/10/10 01:14:54;;;;;;;32.97;21.17;;;13.80;99.90;;;;;;4973564;28;20177;-70
2023/10/10 01:17:20;;;;;;;32.47;21.37;;;13.70;99.90;;;;;;4973498;28;20213;-70
2023/10/10 01:19:46;;;;;;;32.27;21.63;;;13.70;99.90;;;;;;4973540;28;20288;-70
2023/10/10 01:22:22;;;;;;;33.03;22.33;;;13.70;99.90;;;;;;4973422;28;20308;-70
2023/10/10 01:24:53;;;;;;;39.40;22.93;;;13.60;99.90;;;;;;4973154;28;20231;-71
2023/10/10 01:27:21;;;;;;;32.63;22.00;;;13.60;99.90;;;;;;4973319;28;20177;-70
2023/10/10 01:30:02;;;;;;;44.90;25.43;;;13.60;99.90;;;;;;4973096;28;20189;-70
2023/10/10 01:32:29;;;;;;;37.07;22.40;;;13.60;99.90;;;;;;4972895;28;20185;-70
2023/10/10 01:34:54;;;;;;;38.30;24.17;;;13.60;99.90;;;;;;4973319;28;20858;-70
2023/10/10 01:37:27;;;;;;;34.30;21.77;;;13.50;99.90;;;;;;4971081;28;20182;-70
2023/10/10 01:39:54;;;;;;;33.87;21.93;;;13.50;99.90;;;;;;4972415;28;20272;-71
2023/10/10 01:42:31;;;;;;;37.90;23.37;;;13.50;99.90;;;;;;4972746;28;20586;-70
2023/10/10 01:45:02;;;;;;;40.10;23.60;;;13.50;99.90;;;;;;4973019;28;20177;-70
2023/10/10 01:47:34;;;;;;;32.23;21.80;;;13.50;99.90;;;;;;4972816;28;20185;-70
2023/10/10 01:50:07;;;;;;;38.10;22.73;;;13.50;99.90;;;;;;4973009;28;20261;-70
2023/10/10 01:52:37;;;;;;;35.70;22.20;;;13.50;99.90;;;;;;4972757;28;20206;-70
2023/10/10 01:55:03;;;;;;;37.80;23.70;;;13.50;99.90;;;;;;4973238;28;20177;-70
2023/10/10 01:57:28;;;;;;;35.10;23.57;;;13.50;99.90;;;;;;4972295;28;20185;-70
2023/10/10 01:59:57;;;;;;;34.90;22.73;;;13.50;99.90;;;;;;4972815;28;20197;-70
2023/10/10 02:02:26;;;;;;;33.97;21.40;;;13.40;99.90;;;;;;4972570;28;20236;-70
2023/10/10 02:04:56;;;;;;;34.63;23.33;;;13.40;99.90;;;;;;4972009;28;20174;-70
2023/10/10 02:07:23;;;;;;;35.17;21.83;;;13.40;99.90;;;;;;4972597;28;20252;-70
2023/10/10 02:12:36;;;;;;;36.67;22.80;;;13.40;99.90;;;;;;4972460;28;20181;-70
2023/10/10 02:15:05;;;;;;;32.87;20.40;;;13.40;99.90;;;;;;4972541;28;20566;-70
2023/10/10 02:17:39;;;;;;;32.83;20.73;;;13.30;99.90;;;;;;4971103;28;20173;-70
2023/10/10 02:20:51;;;;;;;30.47;20.27;;;13.30;99.90;;;;;;4972507;28;20594;-70
2023/10/10 02:23:09;;;;;;;38.73;21.07;;;13.30;99.90;;;;;;4968395;28;20228;-70
2023/10/10 02:28:10;;;;;;;39.00;21.33;;;13.30;99.90;;;;;;4972273;28;20177;-70
2023/10/10 02:30:37;;;;;;;31.67;20.40;;;13.30;99.90;;;;;;4972403;28;20723;-70
2023/10/10 02:35:57;;;;;;;34.17;20.43;;;13.20;99.90;;;;;;4972751;28;20666;-71
2023/10/10 02:38:34;;;;;;;36.30;21.07;;;13.20;99.90;;;;;;4972735;28;20180;-70
2023/10/10 02:46:38;;;;;;;35.20;21.80;;;13.10;99.90;;;;;;4972332;28;20193;-69
2023/10/10 02:49:09;;;;;;;38.43;23.80;;;13.10;99.90;;;;;;4972615;28;20236;-70
2023/10/10 02:51:41;;;;;;;46.27;25.07;;;13.10;99.90;;;;;;4972319;28;20606;-70
2023/10/10 02:56:58;;;;;;;43.63;23.40;;;13.10;99.90;;;;;;4976216;28;20181;-70
2023/10/10 02:59:31;;;;;;;37.47;23.13;;;13.00;99.90;;;;;;4976170;28;20181;-71
2023/10/10 03:01:59;;;;;;;39.07;23.00;;;13.00;99.90;;;;;;4975864;28;20201;-71
2023/10/10 03:04:52;;;;;;;34.27;21.97;;;13.00;99.90;;;;;;4976365;28;20649;-70
2023/10/10 03:07:21;;;;;;;34.80;23.73;;;13.00;99.90;;;;;;4976084;28;20642;-71
2023/10/10 03:12:31;;;;;;;32.90;21.63;;;13.00;99.90;;;;;;4976087;28;20232;-70
2023/10/10 03:15:12;;;;;;;37.23;22.77;;;12.90;99.90;;;;;;4975794;28;20194;-70
2023/10/10 03:20:23;;;;;;;29.60;20.33;;;12.90;99.90;;;;;;4976427;28;20554;-71
2023/10/10 03:25:51;;;;;;;31.67;19.93;;;12.90;99.90;;;;;;4975657;28;20268;-71
2023/10/10 03:28:29;;;;;;;31.57;20.47;;;12.90;99.90;;;;;;4974364;28;20191;-70
2023/10/10 03:33:43;;;;;;;37.20;20.20;;;12.90;99.90;;;;;;4975558;28;20181;-70
2023/10/10 05:25:13;;;;;;;23.83;15.50;;;12.60;99.90;;;;;;4973910;28;20176;-69
2023/10/10 05:27:42;;;;;;;23.00;15.70;;;12.60;99.90;;;;;;4973448;28;20280;-69
2023/10/10 05:30:22;;;;;;;24.63;16.20;;;12.60;99.90;;;;;;4973327;28;20575;-69
2023/10/10 05:33:01;;;;;;;21.03;14.77;;;12.60;99.90;;;;;;4973299;28;20235;-70
2023/10/10 05:35:47;;;;;;;24.33;15.43;;;12.60;99.90;;;;;;4972404;28;20177;-70
2023/10/10 05:38:15;;;;;;;27.83;15.90;;;12.60;99.90;;;;;;4973518;28;20660;-69
2023/10/10 05:40:43;;;;;;;26.50;15.77;;;12.60;99.90;;;;;;4973370;28;20204;-70
2023/10/10 05:43:13;;;;;;;23.53;16.07;;;12.60;99.90;;;;;;4973762;28;20673;-69
2023/10/10 05:45:39;;;;;;;19.97;15.70;;;12.60;99.90;;;;;;4953750;28;20182;-70
2023/10/10 05:48:05;;;;;;;19.87;14.53;;;12.60;99.90;;;;;;4957413;28;20185;-69
2023/10/10 05:50:32;;;;;;;23.07;13.80;;;12.60;99.90;;;;;;4972822;28;20272;-70
2023/10/10 05:53:00;;;;;;;24.03;13.63;;;12.60;99.90;;;;;;4971415;28;20173;-69
2023/10/10 05:55:28;;;;;;;19.50;12.83;;;12.60;99.90;;;;;;4971850;28;20181;-70
2023/10/10 05:57:57;;;;;;;19.20;14.63;;;12.60;99.90;;;;;;4972776;28;20177;-69
2023/10/10 06:00:26;;;;;;;18.93;12.93;;;12.60;99.90;;;;;;4973011;28;20185;-70
2023/10/10 06:02:52;;;;;;;23.17;13.47;;;12.60;99.90;;;;;;4972195;28;20256;-70
2023/10/10 06:05:18;;;;;;;21.23;13.13;;;12.60;99.90;;;;;;4972967;28;20226;-70
2023/10/10 06:07:43;;;;;;;16.60;11.63;;;12.60;99.90;;;;;;4972531;28;20654;-69
2023/10/10 06:10:16;;;;;;;16.60;12.20;;;12.60;99.90;;;;;;4972842;28;20556;-70
2023/10/10 06:12:42;;;;;;;18.60;11.27;;;12.70;99.90;;;;;;4972119;28;20177;-70
2023/10/10 06:15:08;;;;;;;19.83;11.30;;;12.60;99.90;;;;;;4972858;28;20179;-69
2023/10/10 06:17:34;;;;;;;16.50;11.03;;;12.70;99.90;;;;;;4972272;28;20639;-70
2023/10/10 06:20:00;;;;;;;17.50;11.30;;;12.70;99.90;;;;;;4972091;28;20197;-70
2023/10/10 06:22:29;;;;;;;20.00;10.60;;;12.80;99.90;;;;;;4972340;28;20201;-70
2023/10/10 06:24:58;;;;;;;16.60;11.17;;;12.80;99.90;;;;;;4972319;28;20248;-70
2023/10/10 06:27:28;;;;;;;19.80;11.30;;;12.90;99.90;;;;;;4972218;28;20201;-70
2023/10/10 06:30:00;;;;;;;19.07;11.23;;;13.00;99.90;;;;;;4972431;28;20688;-69
2023/10/10 06:32:30;;;;;;;16.73;10.40;;;13.00;99.90;;;;;;4972277;28;20661;-69
2023/10/10 06:37:51;;;;;;;16.60;10.70;;;13.10;99.90;;;;;;4972602;28;20185;-70
2023/10/10 06:40:29;;;;;;;14.83;10.13;;;13.20;99.90;;;;;;4953396;28;20217;-70
2023/10/10 06:42:56;;;;;;;15.33;10.63;;;13.30;99.90;;;;;;4952845;28;20208;-70
2023/10/10 06:45:27;;;;;;;15.33;10.67;;;13.40;99.90;;;;;;4953107;28;20200;-70
2023/10/10 06:47:54;;;;;;;14.90;10.90;;;13.50;99.90;;;;;;4965574;28;20183;-69
2023/10/10 06:50:22;;;;;;;17.20;11.77;;;13.60;99.90;;;;;;4972229;28;20221;-69
2023/10/10 06:52:52;;;;;;;16.67;10.60;;;13.70;99.90;;;;;;4972065;28;20244;-69
2023/10/10 06:55:23;;;;;;;13.93;10.03;;;13.80;99.90;;;;;;4972322;28;20228;-69
2023/10/10 06:58:01;;;;;;;15.93;10.27;;;14.00;99.90;;;;;;4970854;28;20273;-69
2023/10/10 07:00:29;;;;;;;17.20;10.20;;;14.10;99.90;;;;;;4972291;28;20200;-68
2023/10/10 07:02:56;;;;;;;17.23;9.77;;;14.20;99.90;;;;;;4971665;28;20201;-69
2023/10/10 07:05:26;;;;;;;12.97;9.67;;;14.40;99.90;;;;;;4971538;28;20177;-72
2023/10/10 07:07:57;;;;;;;16.07;10.13;;;14.50;99.90;;;;;;4971368;28;20547;-71
2023/10/10 07:10:32;;;;;;;11.73;9.43;;;14.70;99.90;;;;;;4971635;28;20185;-69
2023/10/10 07:13:01;;;;;;;18.33;8.37;;;14.90;99.90;;;;;;4971339;28;20538;-69
2023/10/10 07:15:35;;;;;;;11.13;9.10;;;15.10;99.90;;;;;;4971534;28;20216;-70
2023/10/10 07:18:14;;;;;;;15.33;8.63;;;15.30;99.90;;;;;;4971433;28;20181;-69
2023/10/10 07:21:04;;;;;;;15.07;9.50;;;15.60;99.90;;;;;;4971862;28;20321;-70
2023/10/10 07:23:38;;;;;;;14.30;8.90;;;15.70;99.90;;;;;;4971929;28;20213;-70
2023/10/10 07:26:31;;;;;;;13.33;7.87;;;15.80;99.90;;;;;;4972035;28;20175;-70
2023/10/10 07:28:56;;;;;;;10.47;7.77;;;15.90;99.90;;;;;;4971687;28;20721;-70
2023/10/10 07:31:24;;;;;;;12.63;7.93;;;16.00;99.90;;;;;;4971901;28;20567;-69
2023/10/10 07:34:03;;;;;;;10.80;7.63;;;16.20;99.90;;;;;;4971401;28;20264;-69
2023/10/10 07:36:29;;;;;;;11.80;7.27;;;16.30;99.90;;;;;;4971906;28;20173;-70
2023/10/10 07:39:31;;;;;;;15.57;7.37;;;16.50;99.90;;;;;;4973296;28;20188;-70
2023/10/10 07:41:45;;;;;;;13.43;7.97;;;16.60;99.90;;;;;;4974726;28;20185;-70
2023/10/10 07:44:11;;;;;;;16.27;8.10;;;16.80;99.90;;;;;;4975250;28;20180;-70
2023/10/10 07:46:37;;;;;;;13.43;7.73;;;17.00;99.90;;;;;;4975185;28;20193;-71
2023/10/10 07:49:03;;;;;;;10.93;7.50;;;17.10;99.90;;;;;;4975039;28;20256;-70
2023/10/10 07:51:29;;;;;;;17.33;8.67;;;17.20;99.90;;;;;;4975295;28;20192;-71
2023/10/10 07:54:12;;;;;;;12.37;7.53;;;17.40;99.90;;;;;;4974646;28;20186;-70
2023/10/10 07:56:45;;;;;;;20.77;8.70;;;17.50;99.90;;;;;;4973123;28;20245;-71
2023/10/10 07:59:14;;;;;;;14.67;8.20;;;17.60;99.90;;;;;;4974616;28;20724;-70
2023/10/10 08:01:44;;;;;;;14.03;8.37;;;17.80;99.90;;;;;;4974447;28;20182;-70
2023/10/10 08:04:16;;;;;;;12.40;7.73;;;17.90;99.90;;;;;;4974818;28;20178;-70
2023/10/10 08:06:44;;;;;;;11.80;7.70;;;18.20;99.90;;;;;;4974948;28;20177;-70
2023/10/10 08:11:46;;;;;;;12.47;7.50;;;19.10;99.90;;;;;;4974650;28;20517;-71
2023/10/10 08:14:12;;;;;;;11.82;7.15;;;19.60;99.90;;;;;;4973217;28;20185;-69
2023/10/10 08:16:39;;;;;;;10.50;7.65;;;20.00;99.90;;;;;;4974083;28;20178;-70
2023/10/10 08:19:06;;;;;;;10.40;7.70;;;20.30;99.90;;;;;;4974350;28;20217;-70
2023/10/10 08:21:48;;;;;;;12.45;8.05;;;20.50;99.90;;;;;;4974755;28;20567;-70
2023/10/10 08:24:15;;;;;;;10.57;8.20;;;20.80;99.90;;;;;;4974677;28;20184;-70
2023/10/10 08:26:41;;;;;;;12.55;7.85;;;21.20;99.90;;;;;;4973221;28;20185;-70
2023/10/10 08:29:09;;;;;;;10.70;7.38;;;21.40;99.90;;;;;;4974007;28;20196;-70
2023/10/10 08:31:36;;;;;;;11.30;7.32;;;21.70;99.90;;;;;;4974378;28;20208;-70
2023/10/10 08:34:03;;;;;;;11.07;7.30;;;22.00;99.90;;;;;;4973654;28;20184;-70
2023/10/10 08:36:29;;;;;;;13.93;7.82;;;22.40;99.90;;;;;;4974403;28;20227;-70
2023/10/10 08:39:11;;;;;;;15.60;7.82;;;22.60;99.90;;;;;;4974211;28;20193;-71
2023/10/10 08:41:38;;;;;;;11.95;7.63;;;22.80;99.90;;;;;;4973856;28;21487;-71
2023/10/10 08:44:09;;;;;;;16.42;6.82;;;23.00;99.90;;;;;;4973895;28;20565;-69
2023/10/10 08:46:41;;;;;;;9.68;6.80;;;23.30;99.90;;;;;;4973917;28;20248;-71
2023/10/10 08:49:08;;;;;;;11.85;6.40;;;23.60;99.90;;;;;;4974044;28;20180;-71
2023/10/10 08:51:35;;;;;;;10.95;7.50;;;23.90;99.90;;;;;;4972871;28;20189;-71
2023/10/10 08:54:10;;;;;;;11.15;6.60;;;24.00;99.90;;;;;;4973280;28;20188;-71
2023/10/10 08:56:39;;;;;;;11.75;7.10;;;24.00;99.90;;;;;;4974263;28;20263;-71
2023/10/10 08:59:17;;;;;;;13.10;7.10;;;23.90;99.90;;;;;;4973731;28;20188;-70
2023/10/10 09:01:43;;;;;;;11.50;6.68;;;23.90;99.90;;;;;;4973996;28;20177;-70
2023/10/10 09:04:19;;;;;;;11.20;7.13;;;24.00;99.90;;;;;;4973074;28;20177;-70
2023/10/10 09:09:37;;;;;;;10.07;6.55;;;24.00;99.90;;;;;;4973597;28;20185;-70
2023/10/10 09:12:04;;;;;;;16.20;6.93;;;23.80;99.90;;;;;;4973133;28;20181;-70
2023/10/10 09:14:41;;;;;;;10.75;6.80;;;23.70;99.90;;;;;;4973426;28;20178;-70
2023/10/10 09:17:09;;;;;;;11.55;6.20;;;23.70;99.90;;;;;;4973218;28;20173;-69
2023/10/10 09:19:41;;;;;;;13.45;6.95;;;23.70;99.90;;;;;;4973442;28;20204;-70
2023/10/10 09:22:12;;;;;;;10.35;7.50;;;23.60;99.90;;;;;;4973287;28;20208;-70
2023/10/10 09:24:40;;;;;;;11.60;7.88;;;23.40;99.90;;;;;;4973390;28;20356;-71
2023/10/10 09:27:22;;;;;;;11.15;6.97;;;23.20;99.90;;;;;;4973234;28;20201;-71
2023/10/10 09:29:54;;;;;;;15.82;7.13;;;23.10;99.90;;;;;;4973639;28;20221;-70
2023/10/10 09:32:28;;;;;;;9.80;7.03;;;23.10;99.90;;;;;;4973388;28;20166;-70
2023/10/10 09:34:57;;;;;;;9.77;7.70;;;23.10;99.90;;;;;;4972993;28;20176;-70
2023/10/10 09:37:30;;;;;;;12.50;8.00;;;23.10;99.90;;;;;;4973221;28;20586;-70
2023/10/10 09:39:56;;;;;;;14.02;7.60;;;23.10;99.90;;;;;;4972899;28;20197;-71
2023/10/10 09:45:18;;;;;;;14.55;6.75;;;23.20;99.90;;;;;;4973134;28;20667;-70
2023/10/10 09:48:04;;;;;;;12.73;7.13;;;23.10;99.90;;;;;;4972954;28;20185;-70
2023/10/10 09:50:35;;;;;;;11.98;6.97;;;23.10;99.90;;;;;;4972769;28;20198;-71
2023/10/10 09:53:01;;;;;;;11.55;6.97;;;23.20;99.90;;;;;;4972466;28;20488;-70
2023/10/10 10:09:09;;;;;;;11.57;6.72;;;24.20;99.90;;;;;;4972697;28;20208;-70
2023/10/10 10:11:59;;;;;;;8.93;6.53;;;24.40;99.90;;;;;;4972380;28;20240;-70
2023/10/10 10:14:50;;;;;;;12.85;6.97;;;24.50;99.90;;;;;;4972272;28;20236;-70
2023/10/10 10:17:23;;;;;;;9.27;6.50;;;24.50;99.90;;;;;;4971865;28;20264;-70
2023/10/10 10:19:49;;;;;;;10.35;6.03;;;24.50;99.90;;;;;;4972581;28;20206;-70
2023/10/10 10:22:18;;;;;;;14.73;6.60;;;24.60;99.90;;;;;;4971953;28;20811;-70
2023/10/10 10:24:45;;;;;;;8.82;6.32;;;24.60;99.90;;;;;;4971168;28;20178;-70
2023/10/10 10:27:24;;;;;;;14.05;6.35;;;24.70;99.90;;;;;;4971936;28;20272;-70
2023/10/10 10:29:54;;;;;;;12.07;6.10;;;24.80;99.90;;;;;;4972365;28;20197;-70
2023/10/10 10:32:23;;;;;;;11.05;6.95;;;24.80;99.90;;;;;;4971893;28;20185;-71
2023/10/10 10:34:55;;;;;;;16.17;7.10;;;25.00;99.90;;;;;;4953256;28;20178;-70
2023/10/10 10:37:23;;;;;;;14.93;7.32;;;25.10;99.90;;;;;;4968741;28;20181;-70
2023/10/10 10:42:51;;;;;;;12.60;6.50;;;25.10;99.90;;;;;;4967347;28;20206;-71
2023/10/10 10:45:25;;;;;;;9.98;8.18;;;25.20;99.90;;;;;;4972217;28;20177;-70
2023/10/10 10:47:59;;;;;;;9.73;6.63;;;25.00;99.90;;;;;;4971791;28;20177;-70
2023/10/10 10:50:29;;;;;;;11.77;7.45;;;25.00;99.90;;;;;;4972201;28;20192;-71
2023/10/10 10:53:08;;;;;;;9.23;6.25;;;25.10;99.90;;;;;;4972168;28;20174;-70
2023/10/10 10:55:52;;;;;;;8.55;7.47;;;25.10;99.90;;;;;;4972122;28;20193;-71
2023/10/10 10:58:21;;;;;;;11.93;7.80;;;25.20;99.90;;;;;;4972066;28;20174;-70
2023/10/10 11:03:33;;;;;;;7.85;7.00;;;25.50;99.90;;;;;;4971906;28;20217;-71
2023/10/10 11:05:59;;;;;;;9.77;5.60;;;25.60;99.90;;;;;;4972018;28;20182;-70
2023/10/10 11:14:03;;;;;;;7.45;5.03;;;26.00;99.90;;;;;;4973236;28;20204;-70
2023/10/10 11:16:45;;;;;;;8.85;5.35;;;26.20;99.90;;;;;;4975463;28;20320;-71
2023/10/10 11:21:56;;;;;;;10.18;5.55;;;26.40;99.90;;;;;;4972378;28;20169;-70
2023/10/10 11:24:31;;;;;;;6.97;5.13;;;26.10;99.90;;;;;;4975139;28;20178;-70
2023/10/10 11:29:42;;;;;;;7.85;4.82;;;26.30;99.90;;;;;;4974228;28;20448;-70
2023/10/10 11:32:11;;;;;;;5.65;4.43;;;26.30;99.90;;;;;;4975224;28;20761;-70
2023/10/10 11:34:47;;;;;;;5.30;4.03;;;26.30;99.90;;;;;;4974194;28;20186;-70
2023/10/10 11:37:21;;;;;;;6.80;4.82;;;26.60;99.90;;;;;;4975252;28;20181;-70
2023/10/10 11:40:01;;;;;;;8.18;4.55;;;26.80;99.90;;;;;;4975228;28;20246;-70
2023/10/10 11:42:33;;;;;;;10.15;4.95;;;26.90;99.90;;;;;;4975510;28;20215;-77
2023/10/10 11:45:06;;;;;;;8.32;4.97;;;26.80;99.90;;;;;;4975349;28;20169;-71
2023/10/10 11:47:42;;;;;;;8.13;4.35;;;26.80;99.90;;;;;;4974915;28;20268;-70
2023/10/10 11:50:11;;;;;;;6.90;3.97;;;26.80;99.90;;;;;;4964548;28;20723;-71
2023/10/10 11:52:53;;;;;;;7.45;4.50;;;26.80;99.90;;;;;;4974068;28;20193;-70
2023/10/10 11:55:26;;;;;;;9.23;4.95;;;26.90;99.90;;;;;;4974662;28;20623;-71
2023/10/10 11:57:57;;;;;;;8.73;4.82;;;27.00;99.90;;;;;;4974888;28;20174;-71
2023/10/10 12:00:42;;;;;;;6.95;4.93;;;26.90;99.90;;;;;;4974926;28;20300;-71
2023/10/10 12:03:10;;;;;;;7.53;4.65;;;26.90;99.90;;;;;;4974446;28;20197;-70
2023/10/10 12:05:42;;;;;;;8.43;4.55;;;26.90;99.90;;;;;;4975013;28;20177;-70
2023/10/10 12:08:07;;;;;;;8.32;4.40;;;27.00;99.90;;;;;;4974738;28;20232;-70
2023/10/10 12:10:52;;;;;;;8.02;4.80;;;27.10;99.90;;;;;;4974582;28;20673;-70
2023/10/10 12:13:33;;;;;;;10.18;5.03;;;27.20;99.90;;;;;;4974266;28;20204;-71
2023/10/10 12:16:07;;;;;;;8.35;4.93;;;27.30;99.90;;;;;;4973853;28;20208;-71
2023/10/10 12:18:52;;;;;;;6.88;4.78;;;27.40;99.90;;;;;;4974630;28;20191;-71
2023/10/10 12:21:20;;;;;;;8.85;5.05;;;27.50;99.90;;;;;;4974480;28;20711;-71
2023/10/10 12:23:56;;;;;;;9.98;4.60;;;27.80;99.90;;;;;;4973752;28;20209;-71
2023/10/10 12:26:25;;;;;;;10.18;5.38;;;28.00;99.90;;;;;;4974485;28;20179;-71
2023/10/10 12:28:54;;;;;;;12.18;5.00;;;28.10;99.90;;;;;;4974579;28;20585;-71
2023/10/10 12:31:21;;;;;;;6.88;4.78;;;27.90;99.90;;;;;;4973732;28;20232;-71
2023/10/10 12:33:48;;;;;;;8.80;5.05;;;27.90;99.90;;;;;;4974076;28;20174;-71
2023/10/10 12:36:18;;;;;;;6.15;4.70;;;27.80;99.90;;;;;;4974226;28;20181;-71
2023/10/10 12:38:44;;;;;;;5.85;4.47;;;27.90;99.90;;;;;;4974415;28;20181;-70
2023/10/10 12:41:11;;;;;;;5.82;4.60;;;27.90;99.90;;;;;;4974095;28;20193;-70
2023/10/10 12:43:37;;;;;;;7.18;4.50;;;27.80;99.90;;;;;;4973759;28;20292;-70
2023/10/10 12:46:04;;;;;;;8.80;4.78;;;27.80;99.90;;;;;;4973546;28;20189;-70
2023/10/10 12:48:31;;;;;;;8.95;4.47;;;27.90;99.90;;;;;;4974251;28;20178;-70
2023/10/10 12:51:00;;;;;;;9.90;4.80;;;28.00;99.90;;;;;;4974155;28;20617;-70
2023/10/10 12:53:30;;;;;;;7.00;4.50;;;28.20;99.90;;;;;;4973825;28;20170;-71
2023/10/10 12:56:01;;;;;;;8.50;4.15;;;28.40;99.90;;;;;;4973943;28;20184;-70
2023/10/10 12:58:27;;;;;;;8.90;5.25;;;28.50;99.90;;;;;;4974203;28;20543;-71
2023/10/10 13:00:54;;;;;;;7.53;4.53;;;28.60;99.90;;;;;;4973839;28;20197;-71
2023/10/10 13:03:28;;;;;;;9.63;4.22;;;28.70;99.90;;;;;;4973602;28;20209;-69
2023/10/10 13:06:04;;;;;;;8.68;4.60;;;28.90;99.90;;;;;;4973992;28;20177;-71
2023/10/10 13:08:47;;;;;;;8.07;4.57;;;29.00;99.90;;;;;;4973916;28;20228;-71
2023/10/10 13:11:16;;;;;;;8.13;4.45;;;29.10;99.90;;;;;;4973258;28;20192;-71
2023/10/10 13:13:45;;;;;;;11.05;5.35;;;29.30;99.90;;;;;;4973202;28;20196;-70
2023/10/10 13:18:59;;;;;;;7.93;4.72;;;29.30;99.90;;;;;;4973534;28;20219;-71
2023/10/10 13:21:26;;;;;;;10.18;4.65;;;29.10;99.90;;;;;;4973513;28;20232;-71
2023/10/10 13:23:53;;;;;;;8.30;5.25;;;29.00;99.90;;;;;;4973126;28;20235;-71
2023/10/10 13:26:21;;;;;;;9.52;4.32;;;28.70;99.90;;;;;;4972001;28;20186;-70
2023/10/10 13:28:48;;;;;;;8.48;4.32;;;28.60;99.90;;;;;;4972137;28;20189;-71
2023/10/10 13:31:18;;;;;;;8.00;4.50;;;28.60;99.90;;;;;;4973081;28;20189;-70
2023/10/10 13:33:44;;;;;;;9.57;4.88;;;28.70;99.90;;;;;;4973027;28;20229;-71
2023/10/10 13:36:12;;;;;;;8.05;4.68;;;28.60;99.90;;;;;;4972499;28;20196;-70
2023/10/10 13:38:53;;;;;;;6.28;4.93;;;28.50;99.90;;;;;;4973222;28;20550;-70
2023/10/10 13:41:20;;;;;;;11.25;4.80;;;28.60;99.90;;;;;;4972793;28;20288;-70
2023/10/10 13:43:50;;;;;;;6.93;4.82;;;28.50;99.90;;;;;;4972502;28;20605;-71
2023/10/10 13:46:20;;;;;;;7.90;4.72;;;28.50;99.90;;;;;;4972929;28;20185;-71
2023/10/10 13:48:47;;;;;;;9.15;4.63;;;28.60;99.90;;;;;;4973189;28;20206;-70
2023/10/10 13:51:14;;;;;;;5.38;4.30;;;28.50;99.90;;;;;;4972748;28;20212;-70
2023/10/10 13:53:44;;;;;;;7.22;4.30;;;28.50;99.90;;;;;;4972616;28;20185;-70
2023/10/10 13:56:12;;;;;;;10.43;4.25;;;28.60;99.90;;;;;;4972657;28;20213;-70
2023/10/10 13:58:40;;;;;;;7.05;4.28;;;28.50;99.90;;;;;;4972995;28;20658;-71
2023/10/10 14:01:26;;;;;;;6.50;4.32;;;28.50;99.90;;;;;;4972718;28;20197;-70
2023/10/10 14:04:03;;;;;;;9.27;4.88;;;28.70;99.90;;;;;;4972520;28;20201;-71
2023/10/10 14:06:45;;;;;;;7.88;4.43;;;28.90;99.90;;;;;;4972908;28;20170;-71
2023/10/10 14:09:11;;;;;;;8.93;4.32;;;29.00;99.90;;;;;;4972029;28;20635;-71
2023/10/10 14:11:38;;;;;;;10.93;4.47;;;28.90;99.90;;;;;;4972741;28;20192;-71
2023/10/10 14:14:06;;;;;;;8.93;4.80;;;28.90;99.90;;;;;;4972343;28;20172;-71
2023/10/10 14:16:32;;;;;;;11.90;5.32;;;28.90;99.90;;;;;;4972732;28;20265;-71
2023/10/10 14:19:01;;;;;;;9.40;5.05;;;28.90;99.90;;;;;;4972563;28;20272;-71
2023/10/10 14:21:27;;;;;;;9.40;4.65;;;28.80;99.90;;;;;;4972556;28;20247;-71
2023/10/10 14:24:13;;;;;;;5.78;4.22;;;28.80;99.90;;;;;;4972245;28;20295;-71
2023/10/10 14:26:43;;;;;;;8.20;4.82;;;28.80;99.90;;;;;;4972671;28;20165;-70
2023/10/10 14:29:12;;;;;;;6.72;4.75;;;28.90;99.90;;;;;;4971591;28;20177;-72
2023/10/10 14:31:45;;;;;;;8.68;5.10;;;29.00;99.90;;;;;;4972474;28;20674;-70
2023/10/10 14:34:24;;;;;;;8.32;4.75;;;29.00;99.90;;;;;;4972150;28;20192;-70
2023/10/10 14:36:51;;;;;;;7.32;5.57;;;28.90;99.90;;;;;;4971756;28;20181;-70
2023/10/10 14:39:31;;;;;;;8.43;5.38;;;28.90;99.90;;;;;;4972415;28;20260;-71
2023/10/10 14:42:00;;;;;;;7.13;4.18;;;28.90;99.90;;;;;;4972517;28;20173;-71
2023/10/10 14:44:27;;;;;;;8.10;5.63;;;28.90;99.90;;;;;;4972232;28;20174;-70
2023/10/10 14:46:57;;;;;;;6.70;4.85;;;28.90;99.90;;;;;;4972398;28;20205;-70
2023/10/10 14:49:29;;;;;;;8.98;4.90;;;29.00;99.90;;;;;;4976086;28;20191;-71
2023/10/10 14:51:56;;;;;;;9.77;5.50;;;29.10;99.90;;;;;;4976242;28;20220;-70
2023/10/10 14:54:23;;;;;;;8.77;5.28;;;29.20;99.90;;;;;;4976134;28;20182;-70
2023/10/10 14:56:53;;;;;;;6.55;4.82;;;29.20;99.90;;;;;;4976321;28;20173;-70
2023/10/10 14:59:31;;;;;;;7.30;4.70;;;29.00;99.90;;;;;;4976165;28;20169;-70
2023/10/10 15:02:00;;;;;;;11.52;4.97;;;28.90;99.90;;;;;;4975812;28;20169;-70
2023/10/10 15:04:30;;;;;;;8.60;5.03;;;28.80;99.90;;;;;;4975734;28;20181;-71
2023/10/10 15:06:57;;;;;;;11.05;5.25;;;28.70;99.90;;;;;;4976084;28;20208;-69
2023/10/10 15:09:26;;;;;;;9.13;5.25;;;28.80;99.90;;;;;;4975774;28;20181;-70
2023/10/10 15:11:58;;;;;;;7.10;4.75;;;28.90;99.90;;;;;;4975890;28;20261;-71
2023/10/10 15:14:23;;;;;;;8.95;5.00;;;28.90;99.90;;;;;;4975698;28;20223;-70
2023/10/10 15:16:49;;;;;;;9.48;5.13;;;28.70;99.90;;;;;;4975411;28;20182;-70
2023/10/10 15:19:15;;;;;;;9.70;5.00;;;28.40;99.90;;;;;;4975711;28;20173;-70
2023/10/10 15:21:41;;;;;;;7.85;4.22;;;28.10;99.90;;;;;;4975925;28;20514;-70
2023/10/10 15:24:15;;;;;;;8.25;4.88;;;28.00;99.90;;;;;;4975371;28;20244;-70
2023/10/10 15:26:41;;;;;;;10.40;5.10;;;27.80;99.90;;;;;;4975820;28;20645;-69
2023/10/10 15:29:12;;;;;;;8.55;4.88;;;27.60;99.90;;;;;;4975623;28;20178;-69
2023/10/10 15:31:40;;;;;;;11.05;4.50;;;27.50;99.90;;;;;;4975620;28;20180;-70
2023/10/10 15:34:06;;;;;;;11.10;4.72;;;27.20;99.90;;;;;;4975501;28;20181;-70
2023/10/10 15:36:32;;;;;;;7.45;4.43;;;26.90;99.90;;;;;;4975623;28;20256;-70
2023/10/10 15:39:05;;;;;;;6.05;4.32;;;26.70;99.90;;;;;;4974470;28;20185;-70
2023/10/10 15:41:31;;;;;;;11.43;4.38;;;26.40;99.90;;;;;;4975551;28;20568;-70
2023/10/10 15:44:02;;;;;;;5.80;4.50;;;26.10;99.90;;;;;;4975160;28;20209;-70
2023/10/10 15:46:32;;;;;;;8.60;4.20;;;25.90;99.90;;;;;;4975127;28;20201;-70
2023/10/10 15:48:59;;;;;;;12.05;6.00;;;25.80;99.90;;;;;;4975297;28;20201;-70
2023/10/10 15:51:25;;;;;;;10.77;4.30;;;25.80;99.90;;;;;;4973968;28;20194;-70
2023/10/10 15:53:52;;;;;;;11.55;5.60;;;25.70;99.90;;;;;;4973723;28;20182;-69
2023/10/10 15:56:20;;;;;;;8.93;4.38;;;25.70;99.90;;;;;;4975117;28;20192;-69
2023/10/10 15:58:50;;;;;;;11.05;4.57;;;25.70;99.90;;;;;;4974379;28;20662;-69
2023/10/10 16:01:22;;;;;;;13.75;5.57;;;25.50;99.90;;;;;;4974822;28;20259;-70